createdAt,value
2023-04-30T00:01:47.322Z,102425.56
2023-04-30T00:06:51.605Z,102419.47
2023-04-30T00:11:54.416Z,102409.91
2023-04-30T00:16:57.253Z,102411.66
2023-04-30T00:22:02.903Z,102415.13
2023-04-30T00:27:05.864Z,102409.91
2023-04-30T00:32:08.821Z,102412.47
2023-04-30T00:37:13.123Z,102410.69
2023-04-30T00:42:16.032Z,102417.63
2023-04-30T00:47:18.808Z,102428.91
2023-04-30T00:52:22.908Z,102431.47
2023-04-30T00:57:26.261Z,102430.56
2023-04-30T01:02:29.104Z,102429.66
2023-04-30T01:07:33.555Z,102426.16
2023-04-30T01:12:41.067Z,102433.97
2023-04-30T01:17:49.318Z,102435.69
2023-04-30T01:23:01.741Z,102430.44
2023-04-30T01:28:09.517Z,102427.78
2023-04-30T01:33:12.527Z,102427.78
2023-04-30T01:38:22.237Z,102420.75
2023-04-30T01:43:35.697Z,102429.44
2023-04-30T01:48:46.319Z,102432.00
2023-04-30T01:53:49.396Z,102422.44
2023-04-30T01:58:54.176Z,102425.91
2023-04-30T02:03:57.074Z,102430.25
2023-04-30T02:09:03.495Z,102425.88
2023-04-30T02:14:08.017Z,102418.84
2023-04-30T02:19:11.204Z,102424.97
2023-04-30T02:24:13.956Z,102416.31
2023-04-30T02:29:18.406Z,102422.31
2023-04-30T02:34:21.171Z,102417.97
2023-04-30T02:39:24.230Z,102410.97
2023-04-30T02:44:28.432Z,102404.81
2023-04-30T02:49:31.228Z,102405.66
2023-04-30T02:54:33.984Z,102401.31
2023-04-30T02:59:38.850Z,102402.19
2023-04-30T03:04:41.821Z,102395.25
2023-04-30T03:09:44.876Z,102395.22
2023-04-30T03:14:48.920Z,102391.72
2023-04-30T03:19:51.770Z,102393.38
2023-04-30T03:24:54.686Z,102382.06
2023-04-30T03:29:58.877Z,102390.72
2023-04-30T03:35:01.681Z,102388.09
2023-04-30T03:40:05.554Z,102387.28
2023-04-30T03:45:10.744Z,102392.47
2023-04-30T03:50:13.663Z,102392.41
2023-04-30T03:55:16.631Z,102379.31
2023-04-30T04:00:21.135Z,102381.03
2023-04-30T04:05:27.899Z,102382.78
2023-04-30T04:10:30.815Z,102385.41
2023-04-30T04:15:35.065Z,102388.94
2023-04-30T04:20:39.969Z,102389.84
2023-04-30T04:25:44.342Z,102395.03
2023-04-30T04:30:49.326Z,102401.09
2023-04-30T04:35:52.145Z,102404.59
2023-04-30T04:40:56.636Z,102402.81
2023-04-30T04:46:01.383Z,102406.22
2023-04-30T04:51:05.784Z,102409.66
2023-04-30T04:56:09.373Z,102407.91
2023-04-30T05:01:13.886Z,102413.16
2023-04-30T05:06:16.973Z,102420.06
2023-04-30T05:11:19.803Z,102417.53
2023-04-30T05:16:24.067Z,102425.38
2023-04-30T05:21:29.651Z,102420.25
2023-04-30T05:26:32.533Z,102425.47
2023-04-30T05:31:36.930Z,102429.03
2023-04-30T05:36:39.808Z,102430.84
2023-04-30T05:41:42.705Z,102425.75
2023-04-30T05:46:46.942Z,102431.91
2023-04-30T05:51:49.776Z,102445.94
2023-04-30T05:56:52.546Z,102444.41
2023-04-30T06:01:56.773Z,102436.81
2023-04-30T06:06:59.645Z,102433.47
2023-04-30T06:12:02.845Z,102445.78
2023-04-30T06:17:07.064Z,102441.59
2023-04-30T06:22:09.987Z,102444.25
2023-04-30T06:27:12.820Z,102439.06
2023-04-30T06:32:16.988Z,102440.81
2023-04-30T06:37:20.186Z,102434.72
2023-04-30T06:42:23.044Z,102432.09
2023-04-30T06:47:27.219Z,102430.94
2023-04-30T06:52:30.817Z,102434.41
2023-04-30T06:57:33.771Z,102436.00
2023-04-30T07:02:38.085Z,102449.13
2023-04-30T07:07:40.989Z,102452.66
2023-04-30T07:12:43.744Z,102449.06
2023-04-30T07:17:47.956Z,102446.44
2023-04-30T07:22:51.088Z,102449.81
2023-04-30T07:27:54.024Z,102448.25
2023-04-30T07:32:58.599Z,102447.28
2023-04-30T07:38:01.537Z,102442.22
2023-04-30T07:43:05.080Z,102440.63
2023-04-30T07:48:09.852Z,102449.44
2023-04-30T07:53:12.904Z,102437.28
2023-04-30T07:58:15.828Z,102442.16
2023-04-30T08:03:20.705Z,102439.69
2023-04-30T08:08:23.636Z,102445.97
2023-04-30T08:13:26.438Z,102451.53
2023-04-30T08:18:30.587Z,102451.72
2023-04-30T08:23:33.709Z,102457.66
2023-04-30T08:28:36.672Z,102439.75
2023-04-30T08:33:43.742Z,102452.16
2023-04-30T08:38:46.589Z,102444.50
2023-04-30T08:43:49.879Z,102443.88
2023-04-30T08:48:54.072Z,102442.19
2023-04-30T08:53:58.401Z,102447.69
2023-04-30T08:59:01.251Z,102444.78
2023-04-30T09:04:06.579Z,102447.03
2023-04-30T09:09:10.682Z,102443.34
2023-04-30T09:14:13.917Z,102433.53
2023-04-30T09:19:26.169Z,102440.47
2023-04-30T09:24:46.993Z,102443.91
2023-04-30T09:29:49.893Z,102432.19
2023-04-30T09:34:54.354Z,102424.19
2023-04-30T09:39:58.022Z,102416.59
2023-04-30T09:45:00.936Z,102420.53
2023-04-30T09:50:06.980Z,102418.59
2023-04-30T09:55:10.693Z,102413.34
2023-04-30T10:00:15.366Z,102413.09
2023-04-30T10:05:19.974Z,102406.19
2023-04-30T10:10:23.402Z,102410.47
2023-04-30T10:15:28.039Z,102395.72
2023-04-30T10:20:33.286Z,102403.41
2023-04-30T10:25:36.781Z,102401.13
2023-04-30T10:30:39.667Z,102398.34
2023-04-30T10:35:48.227Z,102404.78
2023-04-30T10:40:51.357Z,102398.50
2023-04-30T10:45:54.444Z,102392.66
2023-04-30T10:50:59.963Z,102391.72
2023-04-30T10:56:07.322Z,102385.88
2023-04-30T11:01:12.967Z,102382.72
2023-04-30T11:06:20.432Z,102378.44
2023-04-30T11:11:24.199Z,102370.28
2023-04-30T11:16:30.806Z,102359.97
2023-04-30T11:21:35.083Z,102359.78
2023-04-30T11:27:14.776Z,102346.09
2023-04-30T11:32:18.059Z,102343.16
2023-04-30T11:37:24.716Z,102337.34
2023-04-30T11:42:27.837Z,102323.91
2023-04-30T11:47:40.147Z,102321.13
2023-04-30T11:52:50.438Z,102318.91
2023-04-30T11:57:55.704Z,102306.00
2023-04-30T12:03:01.376Z,102305.09
2023-04-30T12:08:07.930Z,102293.22
2023-04-30T12:13:14.852Z,102288.84
2023-04-30T12:18:17.663Z,102291.44
2023-04-30T12:23:22.081Z,102295.44
2023-04-30T12:28:25.359Z,102288.75
2023-04-30T12:33:31.843Z,102277.13
2023-04-30T12:38:35.981Z,102266.13
2023-04-30T12:43:38.783Z,102277.56
2023-04-30T12:48:45.800Z,102264.69
2023-04-30T12:53:50.085Z,102272.28
2023-04-30T12:58:52.881Z,102263.03
2023-04-30T13:03:55.923Z,102258.56
2023-04-30T13:09:00.346Z,102245.31
2023-04-30T13:14:03.084Z,102249.50
2023-04-30T13:19:06.674Z,102240.53
2023-04-30T13:24:10.884Z,102237.78
2023-04-30T13:29:13.664Z,102230.53
2023-04-30T13:34:16.548Z,102225.84
2023-04-30T13:39:21.596Z,102223.84
2023-04-30T13:44:24.449Z,102210.97
2023-04-30T13:49:27.286Z,102208.75
2023-04-30T13:54:31.476Z,102206.66
2023-04-30T13:59:34.519Z,102187.78
2023-04-30T14:04:37.494Z,102185.78
2023-04-30T14:09:41.671Z,102182.31
2023-04-30T14:14:44.542Z,102184.53
2023-04-30T14:19:47.486Z,102189.19
2023-04-30T14:24:53.110Z,102177.25
2023-04-30T14:29:56.245Z,102169.50
2023-04-30T14:34:59.224Z,102165.03
2023-04-30T14:40:05.129Z,102166.19
2023-04-30T14:45:09.390Z,102161.19
2023-04-30T14:50:12.165Z,102153.63
2023-04-30T14:55:16.560Z,102148.69
2023-04-30T15:00:19.577Z,102137.47
2023-04-30T15:05:22.355Z,102131.66
2023-04-30T15:10:26.546Z,102132.38
2023-04-30T15:15:29.744Z,102126.13
2023-04-30T15:20:32.899Z,102120.31
2023-04-30T15:25:37.067Z,102111.78
2023-04-30T15:30:39.865Z,102109.06
2023-04-30T15:35:42.828Z,102111.41
2023-04-30T15:40:46.950Z,102104.75
2023-04-30T15:45:50.095Z,102102.56
2023-04-30T15:50:52.894Z,102098.19
2023-04-30T15:55:57.548Z,102104.41
2023-04-30T16:01:01.329Z,102097.13
2023-04-30T16:06:04.519Z,102090.72
2023-04-30T16:11:09.798Z,102082.53
2023-04-30T16:16:13.685Z,102072.47
2023-04-30T16:21:17.128Z,102071.72
2023-04-30T16:26:22.021Z,102059.75
2023-04-30T16:31:24.846Z,102062.16
2023-04-30T16:36:28.063Z,102051.84
2023-04-30T16:41:32.426Z,102044.97
2023-04-30T16:46:36.045Z,102048.47
2023-04-30T16:51:39.110Z,102049.31
2023-04-30T16:56:43.393Z,102044.38
2023-04-30T17:01:46.616Z,102033.81
2023-04-30T17:06:49.603Z,102039.59
2023-04-30T17:11:53.936Z,102030.06
2023-04-30T17:16:57.384Z,102024.50
2023-04-30T17:22:00.380Z,102022.72
2023-04-30T17:27:05.636Z,102019.63
2023-04-30T17:32:11.116Z,102011.84
2023-04-30T17:37:13.982Z,102009.16
2023-04-30T17:42:18.661Z,102007.38
2023-04-30T17:47:22.998Z,102012.19
2023-04-30T17:52:26.143Z,102002.25
2023-04-30T17:57:30.324Z,102007.78
2023-04-30T18:02:33.783Z,102005.25
2023-04-30T18:07:36.817Z,102001.13
2023-04-30T18:12:41.978Z,101997.78
2023-04-30T18:17:46.392Z,101997.28
2023-04-30T18:22:49.364Z,101999.31
2023-04-30T18:27:53.480Z,101991.19
2023-04-30T18:32:56.409Z,101988.88
2023-04-30T18:37:59.334Z,101989.16
2023-04-30T18:43:03.754Z,101988.19
2023-04-30T18:48:07.957Z,101993.34
2023-04-30T18:53:10.896Z,101981.38
2023-04-30T18:58:15.241Z,101989.38
2023-04-30T19:03:18.117Z,101984.88
2023-04-30T19:08:21.040Z,101992.88
2023-04-30T19:13:25.264Z,101988.63
2023-04-30T19:18:28.358Z,101998.34
2023-04-30T19:23:31.621Z,101993.19
2023-04-30T19:28:35.852Z,101996.84
2023-04-30T19:33:40.979Z,101997.78
2023-04-30T19:38:43.878Z,101991.41
2023-04-30T19:43:48.031Z,101986.16
2023-04-30T19:48:51.328Z,101987.16
2023-04-30T19:53:54.919Z,101981.94
2023-04-30T19:58:59.154Z,101978.56
2023-04-30T20:04:02.119Z,101981.44
2023-04-30T20:09:05.285Z,101971.09
2023-04-30T20:14:09.531Z,101975.69
2023-04-30T20:19:13.172Z,101974.00
2023-04-30T20:24:16.000Z,101971.53
2023-04-30T20:29:20.760Z,101975.94
2023-04-30T20:34:24.111Z,101969.94
2023-04-30T20:39:27.135Z,101970.81
2023-04-30T20:44:31.364Z,101969.13
2023-04-30T20:49:34.139Z,101964.81
2023-04-30T20:54:36.912Z,101959.66
2023-04-30T20:59:41.401Z,101957.13
2023-04-30T21:04:44.438Z,101959.06
2023-04-30T21:09:47.459Z,101952.09
2023-04-30T21:14:51.992Z,101946.00
2023-04-30T21:19:56.626Z,101940.91
2023-04-30T21:24:59.858Z,101944.44
2023-04-30T21:30:04.184Z,101942.81
2023-04-30T21:35:07.721Z,101933.34
2023-04-30T21:40:11.785Z,101929.94
2023-04-30T21:45:16.029Z,101929.94
2023-04-30T21:50:19.036Z,101922.00
2023-04-30T21:55:22.160Z,101918.47
2023-04-30T22:00:26.735Z,101910.56
2023-04-30T22:05:29.585Z,101914.06
2023-04-30T22:10:33.119Z,101904.25
2023-04-30T22:15:47.559Z,101904.22
2023-04-30T22:20:51.997Z,101897.31
2023-04-30T22:25:54.854Z,101894.81
2023-04-30T22:31:02.476Z,101887.78
2023-04-30T22:36:06.257Z,101889.63
2023-04-30T22:41:09.206Z,101887.94
2023-04-30T22:46:13.756Z,101884.59
2023-04-30T22:51:17.223Z,101885.53
2023-04-30T22:56:20.878Z,101876.91
2023-04-30T23:01:25.102Z,101879.63
2023-04-30T23:06:29.379Z,101875.31
2023-04-30T23:11:32.243Z,101873.66
2023-04-30T23:16:39.994Z,101867.66
2023-04-30T23:21:43.202Z,101867.75
2023-04-30T23:26:47.189Z,101867.81
2023-04-30T23:31:53.802Z,101866.09
2023-04-30T23:36:57.006Z,101868.75
2023-04-30T23:41:59.791Z,101861.91
2023-04-30T23:47:03.989Z,101859.44
2023-04-30T23:52:07.008Z,101852.50
2023-04-30T23:57:10.278Z,101849.94
